KALI/ALI METAR and TAF weather

Enter ICAO airport designator
Station Type Date Time Source
KALI METAR 2020/09/19 02:53 UTC NOAA

KALI 190253Z AUTO 35007KT 10SM CLR 24/18 A2998 RMK AO2 SLP150 T02390183 53023


Station Type Date Time Source
KALI Decoded METAR 2020/09/19 02:53 UTC NOAA

ALICE INTERNATIONAL AIRPORT, TX, United States (KALI) 27-44N 098-01W 53M
Sep 18, 2020 - 10:53 PM EDT / 2020.09.19 0253 UTC
Wind: from the N (350 degrees) at 8 MPH (7 KT):0
Visibility: 10 mile(s):0
Sky conditions: clear
Temperature: 75.0 F (23.9 C)
Dew Point: 64.9 F (18.3 C)
Relative Humidity: 70%
Pressure (altimeter): 29.98 in. Hg (1015 hPa)
Pressure tendency: 0.07 inches (2.3 hPa) higher than three hours ago
ob: KALI 190253Z AUTO 35007KT 10SM CLR 24/18 A2998 RMK AO2 SLP150 T02390183 53023
cycle: 3

Station Type Date Time Source
KALI TAF 2020/09/18 18:22 UTC NOAA

TAF KALI 181720Z 1818/1918 03012KT P6SM VCTS SCT040CB BKN250
FM190100 01007KT P6SM SCT035
FM190800 36009KT P6SM SCT250

Example: see airport list